Create Custom Reports and Graphics: Custom Report

Latest Observations

MWA Stations

15 Minute Data | America/Los_Angeles
as of 9/5/26 4:49 AM PDT
Station Date Time Temp (°F) RH (%) Dew Pt (°F) Wind Dir (°) Wind Spd (mph) Wind Gust (mph) Solar Rad (W/m2) Pressure (mb) Daily Min Temp (°F) Daily Max Temp (°F) Daily Max Wind (mph) Daily Rain (In) Yest MinT (°F) Yest MaxT (°F) Yest MaxGst (mph) Yest Precip (In) MinBV Day (V)
MWA Office 9/5/26 0445 59.8   0.5 53   5 42.4   2.8 NNW | 341 1.1   0.3 3.1   1.1 0   0 1,014.4   2.3 59.2   0.8 68.4   2.0 11.2   2.4 0.00 56.5 86.7 28.5 0.00 12.4   0.0
MWA OPS 9/5/26 0445 64.6   1.2 38   3 38.7   0.7 SSW | 212 5.8   0.6 10.5   1.5 0   0 1,012.5   2.5 61.6   3.7 66.4   1.2 10.5   5.7 0.00 62.4 84.1 27.4 0.00 12.8   0.0
LV-PS 9/5/26 0445 60.5   0.4 42   9 37.2   4.6 SSE | 149 3.3   0.3 5.3   0.4 0   0 1,013.0   2.3 59.5   0.1 64.9   1.0 7.0   1.3 0.00 57.9 91.6 20.4 0.00 12.8   0.0
JV-PS 9/5/26 0445 60.0   0.6 42   8 36.8   5.0 SSW | 195 1.7   2.3 2.8   2.2 0   0 1,013.2   2.5 58.9   1.6 67.0   0.3 6.4   0.9 0.00 58.3 91.5 20.6 0.00 12.9   0.0
BDVWA 9/5/26 0445 61.3   0.0 37   3 34.6   2.2 W | 278 5.1   0.3 7.7   0.7 0   0 1,012.7   2.3 59.6   1.1 67.6   1.5 11.4   3.1 0.00 60.7 85.7 27.8 0.00 12.9   0.0
Newberry Springs 9/5/26 0445 68.4   1.0 39   6 42.7   4.9 N | 355 8.1   1.2 13.4   1.1 0   0 1,012.0   2.9 67.6   1.4 72.2   5.7 16.2   4.8 0.00 66.2 95.0 26.1 0.00 12.9   0.0
Pinon Hills 9/5/26 0445 57.5   5.3 38   5 32.2   1.4 S | 182 3.0   0.7 7.7   5.5 0   0 1,013.4   3.9 54.2   6.0 60.2   5.3 11.0   2.2 0.00 56.9 81.0 39.7 0.00 12.9   0.0
Helendale 9/5/26 0445 54.9   1.4 54   13 38.7   6.8 W | 259 2.3   0.1 4.4   1.1 0   0 1,014.5   2.4 54.2   0.7 59.9   5.9 6.6   3.7 0.00 54.9 91.0 24.3 0.00 12.7   0.0
Lenwood 9/5/26 0445 57.0   5.4 51   7 39.2   8.3 S | 185 2.2   4.0 3.9   5.9 0   0 1,013.9   3.2 56.9   4.0 68.9   0.8 9.9   3.5 0.00 57.5 92.6 27.0 0.00 12.8   0.5
Oak Hills 9/5/26 0445 56.8   3.3 59   25 42.7   6.3 SW | 223 7.4   0.6 12.5   4.2 0   0 1,014.2   1.3 56.0   2.6 60.0   2.7 16.0   1.8 0.00 53.2 77.1 26.1 0.00 13.0   0.0
Pipes Wash Canyon 9/5/26 0445 56.8   3.3 21   8 17.7   10.3 WNW | 288 3.2   0.5 6.4   2.2 0   0 1,013.3   3.3 55.9   3.2 67.0   3.7 9.4   2.4 0.00 57.6 83.7 22.1 0.00 12.8   0.0
Max     68.4 59 42.7 - 8.1 13.4 0 1,014.5 67.6 72.2 16.2 0.00 66.2 95.0 39.7 0.00 13.0
Avg     59.8 43 36.6 - 3.9 7.1 0 1,013.4 - - - - - - - - -
Min     54.9 21 17.7 - 1.1 2.8 0 1,012.0 54.2 59.9 6.4 0.00 53.2 77.1 20.4 0.00 12.4

Latest Observations

Map

15 Minute Data

Rainfall & ETo

MWA Stations

15 Minute Data | America/Los_Angeles
as of 9/5/26 4:49 AM PDT
Station Date Time Latest Rain (In) Daily Rain (In) Yest Precip (In) Month Precip (In) Season Precip (In) Daily ETo (in) Yest ETo (In) 7 Day ETo (in)
MWA Office 9/5/26 0445 0.00 0.00 0.00 0.00 0.00 0.002 0.28 1.95
MWA OPS 9/5/26 0445 0.00 0.00 0.00 0.00 0.00 0.003 0.30 2.13
LV-PS 9/5/26 0445 0.00 0.00 0.00 0.00 0.34 0.001 0.24 1.96
JV-PS 9/5/26 0445 0.00 0.00 0.00 0.00 0.06 0.002 0.25 1.94
BDVWA 9/5/26 0445 0.00 0.00 0.00 0.00 0.00 0.002 0.29 2.05
Newberry Springs 9/5/26 0445 0.00 0.00 0.00 0.00 1.97 0.006 0.29 2.26
Pinon Hills 9/5/26 0445 0.00 0.00 0.00 0.00 0.19 0.000 0.23 1.69
Helendale 9/5/26 0445 0.00 0.00 0.00 0.00 0.00 0.000 0.25 2.01
Lenwood 9/5/26 0445 0.00 0.00 0.00 0.00 0.09 0.001 0.29 2.14
Oak Hills 9/5/26 0445 0.00 0.00 0.00 0.00 0.00 0.004 0.23 1.70
Pipes Wash Canyon 9/5/26 0445 0.00 0.00 0.00 0.00 0.00 0.003 0.23 1.65
Max     0.00 0.00 0.00 0.00 1.97 0.006 0.30 2.26
Avg     0.00 - - - - - - -
Min     0.00 0.00 0.00 0.00 0.00 0.000 0.23 1.65